sensor_id;sensor_type;location;lat;lon;timestamp;P1;durP1;ratioP1;P2;durP2;ratioP2
17943;SDS011;9097;47.028;15.444;2024-03-02T00:01:33;26.63;;;11.37;;
17943;SDS011;9097;47.028;15.444;2024-03-02T00:04:35;27.70;;;11.33;;
17943;SDS011;9097;47.028;15.444;2024-03-02T00:07:39;23.63;;;10.90;;
17943;SDS011;9097;47.028;15.444;2024-03-02T00:10:43;23.97;;;9.83;;
17943;SDS011;9097;47.028;15.444;2024-03-02T00:13:47;20.83;;;10.77;;
17943;SDS011;9097;47.028;15.444;2024-03-02T00:16:49;24.83;;;10.67;;
17943;SDS011;9097;47.028;15.444;2024-03-02T00:19:53;25.50;;;11.33;;
17943;SDS011;9097;47.028;15.444;2024-03-02T00:22:57;21.10;;;9.57;;
17943;SDS011;9097;47.028;15.444;2024-03-02T00:26:02;19.17;;;9.77;;
17943;SDS011;9097;47.028;15.444;2024-03-02T00:29:07;22.50;;;10.47;;
17943;SDS011;9097;47.028;15.444;2024-03-02T00:32:13;26.03;;;12.57;;
17943;SDS011;9097;47.028;15.444;2024-03-02T00:35:23;21.67;;;9.57;;
17943;SDS011;9097;47.028;15.444;2024-03-02T00:38:26;18.83;;;8.80;;
17943;SDS011;9097;47.028;15.444;2024-03-02T00:41:30;25.17;;;9.90;;
17943;SDS011;9097;47.028;15.444;2024-03-02T00:44:34;23.07;;;10.37;;
17943;SDS011;9097;47.028;15.444;2024-03-02T00:47:38;22.17;;;11.13;;
17943;SDS011;9097;47.028;15.444;2024-03-02T00:50:41;26.23;;;11.07;;
17943;SDS011;9097;47.028;15.444;2024-03-02T00:53:44;20.43;;;8.77;;
17943;SDS011;9097;47.028;15.444;2024-03-02T00:56:47;24.60;;;10.97;;
17943;SDS011;9097;47.028;15.444;2024-03-02T00:59:52;17.43;;;9.13;;
17943;SDS011;9097;47.028;15.444;2024-03-02T01:02:54;18.80;;;9.83;;
17943;SDS011;9097;47.028;15.444;2024-03-02T01:05:57;21.33;;;10.50;;
17943;SDS011;9097;47.028;15.444;2024-03-02T01:08:59;20.30;;;9.37;;
17943;SDS011;9097;47.028;15.444;2024-03-02T01:12:03;22.00;;;11.13;;
17943;SDS011;9097;47.028;15.444;2024-03-02T01:15:08;27.07;;;11.80;;
17943;SDS011;9097;47.028;15.444;2024-03-02T01:18:10;18.03;;;10.03;;
17943;SDS011;9097;47.028;15.444;2024-03-02T01:21:13;22.07;;;8.80;;
17943;SDS011;9097;47.028;15.444;2024-03-02T01:24:15;24.93;;;10.80;;
17943;SDS011;9097;47.028;15.444;2024-03-02T01:27:18;23.37;;;11.77;;
17943;SDS011;9097;47.028;15.444;2024-03-02T01:30:22;23.37;;;10.10;;
17943;SDS011;9097;47.028;15.444;2024-03-02T01:33:24;17.53;;;9.70;;
17943;SDS011;9097;47.028;15.444;2024-03-02T01:36:27;23.37;;;10.40;;
17943;SDS011;9097;47.028;15.444;2024-03-02T01:39:29;22.53;;;9.43;;
17943;SDS011;9097;47.028;15.444;2024-03-02T01:42:32;22.07;;;9.17;;
17943;SDS011;9097;47.028;15.444;2024-03-02T01:45:36;26.37;;;10.23;;
17943;SDS011;9097;47.028;15.444;2024-03-02T01:48:38;25.00;;;10.47;;
17943;SDS011;9097;47.028;15.444;2024-03-02T01:51:41;17.73;;;8.80;;
17943;SDS011;9097;47.028;15.444;2024-03-02T01:54:44;25.93;;;10.00;;
17943;SDS011;9097;47.028;15.444;2024-03-02T01:57:46;27.13;;;10.90;;
17943;SDS011;9097;47.028;15.444;2024-03-02T02:00:50;27.97;;;8.90;;
17943;SDS011;9097;47.028;15.444;2024-03-02T02:03:53;26.07;;;9.40;;
17943;SDS011;9097;47.028;15.444;2024-03-02T02:06:55;25.47;;;11.30;;
17943;SDS011;9097;47.028;15.444;2024-03-02T02:09:58;22.73;;;9.97;;
17943;SDS011;9097;47.028;15.444;2024-03-02T02:13:01;24.03;;;9.90;;
17943;SDS011;9097;47.028;15.444;2024-03-02T02:16:06;23.83;;;10.53;;
17943;SDS011;9097;47.028;15.444;2024-03-02T02:19:09;20.23;;;10.37;;
17943;SDS011;9097;47.028;15.444;2024-03-02T02:22:13;26.20;;;9.80;;
17943;SDS011;9097;47.028;15.444;2024-03-02T02:25:15;22.70;;;11.10;;
17943;SDS011;9097;47.028;15.444;2024-03-02T02:28:17;25.00;;;9.47;;
17943;SDS011;9097;47.028;15.444;2024-03-02T02:31:20;23.37;;;9.80;;
17943;SDS011;9097;47.028;15.444;2024-03-02T02:34:22;22.63;;;8.80;;
17943;SDS011;9097;47.028;15.444;2024-03-02T02:37:26;16.60;;;8.47;;
17943;SDS011;9097;47.028;15.444;2024-03-02T02:40:29;17.97;;;8.80;;
17943;SDS011;9097;47.028;15.444;2024-03-02T02:43:32;22.10;;;8.43;;
17943;SDS011;9097;47.028;15.444;2024-03-02T02:46:34;22.27;;;8.93;;
17943;SDS011;9097;47.028;15.444;2024-03-02T02:49:36;18.93;;;7.57;;
17943;SDS011;9097;47.028;15.444;2024-03-02T02:52:40;17.63;;;7.60;;
17943;SDS011;9097;47.028;15.444;2024-03-02T02:55:44;18.43;;;7.43;;
17943;SDS011;9097;47.028;15.444;2024-03-02T02:58:46;20.60;;;8.87;;
17943;SDS011;9097;47.028;15.444;2024-03-02T03:01:49;18.63;;;7.97;;
17943;SDS011;9097;47.028;15.444;2024-03-02T03:04:53;12.20;;;7.23;;
17943;SDS011;9097;47.028;15.444;2024-03-02T03:07:59;25.07;;;9.20;;
17943;SDS011;9097;47.028;15.444;2024-03-02T03:11:01;17.60;;;8.70;;
17943;SDS011;9097;47.028;15.444;2024-03-02T03:14:04;18.30;;;8.00;;
17943;SDS011;9097;47.028;15.444;2024-03-02T03:17:06;21.37;;;7.73;;
17943;SDS011;9097;47.028;15.444;2024-03-02T03:20:08;20.80;;;9.30;;
17943;SDS011;9097;47.028;15.444;2024-03-02T03:23:12;20.13;;;10.47;;
17943;SDS011;9097;47.028;15.444;2024-03-02T03:26:16;18.60;;;7.07;;
17943;SDS011;9097;47.028;15.444;2024-03-02T03:29:18;14.07;;;6.87;;
17943;SDS011;9097;47.028;15.444;2024-03-02T03:32:21;15.80;;;7.27;;
17943;SDS011;9097;47.028;15.444;2024-03-02T03:35:23;16.83;;;7.03;;
17943;SDS011;9097;47.028;15.444;2024-03-02T03:38:27;21.10;;;8.17;;
17943;SDS011;9097;47.028;15.444;2024-03-02T03:41:29;14.90;;;7.20;;
17943;SDS011;9097;47.028;15.444;2024-03-02T03:44:31;17.30;;;8.00;;
17943;SDS011;9097;47.028;15.444;2024-03-02T03:47:34;18.77;;;6.23;;
17943;SDS011;9097;47.028;15.444;2024-03-02T03:50:36;17.40;;;7.23;;
17943;SDS011;9097;47.028;15.444;2024-03-02T03:53:40;19.37;;;7.67;;
17943;SDS011;9097;47.028;15.444;2024-03-02T03:56:43;16.20;;;7.40;;
17943;SDS011;9097;47.028;15.444;2024-03-02T03:59:45;21.40;;;8.70;;
17943;SDS011;9097;47.028;15.444;2024-03-02T04:02:48;11.27;;;6.73;;
17943;SDS011;9097;47.028;15.444;2024-03-02T04:05:50;12.00;;;5.97;;
17943;SDS011;9097;47.028;15.444;2024-03-02T04:08:54;16.93;;;6.67;;
17943;SDS011;9097;47.028;15.444;2024-03-02T04:11:56;14.37;;;6.13;;
17943;SDS011;9097;47.028;15.444;2024-03-02T04:14:59;15.67;;;7.27;;
17943;SDS011;9097;47.028;15.444;2024-03-02T04:18:02;15.33;;;6.07;;
17943;SDS011;9097;47.028;15.444;2024-03-02T04:21:05;19.37;;;7.80;;
17943;SDS011;9097;47.028;15.444;2024-03-02T04:24:09;17.23;;;7.17;;
17943;SDS011;9097;47.028;15.444;2024-03-02T04:27:11;18.70;;;7.63;;
17943;SDS011;9097;47.028;15.444;2024-03-02T04:30:14;14.83;;;8.03;;
17943;SDS011;9097;47.028;15.444;2024-03-02T04:33:16;16.13;;;7.43;;
17943;SDS011;9097;47.028;15.444;2024-03-02T04:36:18;16.37;;;7.27;;
17943;SDS011;9097;47.028;15.444;2024-03-02T04:39:22;12.93;;;7.40;;
17943;SDS011;9097;47.028;15.444;2024-03-02T04:42:25;18.53;;;7.00;;
17943;SDS011;9097;47.028;15.444;2024-03-02T04:45:27;19.63;;;8.50;;
17943;SDS011;9097;47.028;15.444;2024-03-02T04:48:29;18.40;;;7.33;;
17943;SDS011;9097;47.028;15.444;2024-03-02T04:51:32;16.67;;;7.50;;
17943;SDS011;9097;47.028;15.444;2024-03-02T04:54:37;19.93;;;9.53;;
